createdAt,value
2019-03-09T00:00:23.084Z,2.56
2019-03-09T00:01:23.041Z,2.59
2019-03-09T00:02:23.044Z,2.59
2019-03-09T00:03:23.034Z,2.62
2019-03-09T00:04:23.068Z,2.66
2019-03-09T00:05:23.057Z,2.56
2019-03-09T00:06:23.061Z,2.54
2019-03-09T00:07:23.082Z,2.52
2019-03-09T00:08:24.304Z,2.53
2019-03-09T00:09:23.041Z,2.51
2019-03-09T00:10:23.036Z,2.48
2019-03-09T00:11:23.017Z,2.49
2019-03-09T00:12:23.018Z,2.5
2019-03-09T00:13:23.031Z,2.55
2019-03-09T00:14:23.030Z,2.54
2019-03-09T00:15:23.012Z,2.56
2019-03-09T00:16:23.086Z,2.57
2019-03-09T00:17:23.023Z,2.62
2019-03-09T00:18:23.140Z,2.58
2019-03-09T00:19:23.066Z,2.6
2019-03-09T00:20:23.044Z,2.66
2019-03-09T00:21:23.020Z,2.67
2019-03-09T00:22:23.018Z,2.66
2019-03-09T00:23:23.010Z,2.65
2019-03-09T00:24:23.029Z,2.64
2019-03-09T00:25:24.008Z,2.61
2019-03-09T00:26:23.035Z,2.63
2019-03-09T00:27:30.487Z,2.67
2019-03-09T00:28:23.031Z,2.62
2019-03-09T00:29:23.248Z,2.61
2019-03-09T00:30:23.192Z,2.58
2019-03-09T00:31:23.025Z,2.61
2019-03-09T00:32:23.007Z,2.59
2019-03-09T00:33:23.006Z,2.59
2019-03-09T00:34:23.033Z,2.63
2019-03-09T00:35:23.003Z,2.62
2019-03-09T00:36:23.153Z,2.62
2019-03-09T00:37:23.013Z,2.62
2019-03-09T00:38:23.023Z,2.64
2019-03-09T00:39:22.979Z,2.62
2019-03-09T00:40:23.002Z,2.64
2019-03-09T00:41:23.043Z,2.63
2019-03-09T00:42:24.126Z,2.62
2019-03-09T00:43:22.983Z,2.7
2019-03-09T00:44:22.995Z,2.7
2019-03-09T00:45:22.997Z,2.68
2019-03-09T00:46:22.999Z,2.67
2019-03-09T00:47:23.039Z,2.69
2019-03-09T00:48:23.012Z,2.68
2019-03-09T00:49:23.029Z,2.65
2019-03-09T00:50:23.388Z,2.67
2019-03-09T00:51:23.027Z,2.65
2019-03-09T00:52:23.043Z,2.69
2019-03-09T00:53:23.002Z,2.71
2019-03-09T00:54:22.977Z,2.69
2019-03-09T00:55:22.973Z,2.66
2019-03-09T00:56:22.966Z,2.66
2019-03-09T00:57:22.985Z,2.67
2019-03-09T00:58:22.965Z,2.72
2019-03-09T00:59:23.026Z,2.69
2019-03-09T01:00:22.981Z,2.7
2019-03-09T01:01:22.984Z,2.69
2019-03-09T01:02:23.209Z,2.7
2019-03-09T01:03:22.947Z,2.74
2019-03-09T01:04:22.970Z,2.78
2019-03-09T01:05:22.938Z,2.77
2019-03-09T01:06:22.975Z,2.74
2019-03-09T01:07:23.074Z,2.78
2019-03-09T01:08:22.963Z,2.7
2019-03-09T01:09:23.033Z,2.7
2019-03-09T01:10:22.954Z,2.62
2019-03-09T01:11:22.960Z,2.67
2019-03-09T01:12:22.988Z,2.62
2019-03-09T01:13:23.318Z,2.7
2019-03-09T01:14:22.949Z,2.7
2019-03-09T01:15:22.942Z,2.7
2019-03-09T01:16:22.951Z,2.72
2019-03-09T01:17:22.929Z,2.76
2019-03-09T01:18:22.951Z,2.78
2019-03-09T01:19:22.958Z,2.78
2019-03-09T01:20:22.939Z,2.79
2019-03-09T01:21:22.953Z,2.73
2019-03-09T01:22:22.946Z,2.8
2019-03-09T01:23:22.932Z,2.8
2019-03-09T01:24:22.913Z,2.84
2019-03-09T01:25:22.904Z,2.87
2019-03-09T01:26:22.902Z,2.83
2019-03-09T01:27:22.919Z,2.81
2019-03-09T01:28:22.930Z,2.83
2019-03-09T01:29:22.953Z,2.84
2019-03-09T01:30:22.907Z,2.81
2019-03-09T01:31:22.922Z,2.86
2019-03-09T01:32:22.899Z,2.82
2019-03-09T01:33:22.924Z,2.83
2019-03-09T01:34:22.979Z,2.82
2019-03-09T01:35:22.921Z,2.8
2019-03-09T01:36:22.909Z,2.82
2019-03-09T01:37:22.925Z,2.81
2019-03-09T01:38:22.897Z,2.86
2019-03-09T01:39:22.910Z,2.78
2019-03-09T01:40:22.869Z,2.85
2019-03-09T01:41:22.899Z,2.85
2019-03-09T01:42:22.880Z,2.85
2019-03-09T01:43:22.891Z,2.81
2019-03-09T01:44:22.885Z,2.82
2019-03-09T01:45:22.902Z,2.84
2019-03-09T01:46:22.912Z,2.84
2019-03-09T01:47:22.903Z,2.83
2019-03-09T01:48:22.866Z,2.87
2019-03-09T01:49:22.905Z,2.79
2019-03-09T01:50:22.869Z,2.83
2019-03-09T01:51:22.924Z,2.83
2019-03-09T01:52:22.867Z,2.86
2019-03-09T01:53:22.886Z,2.86
2019-03-09T01:54:22.869Z,2.87
2019-03-09T01:55:23.189Z,2.9
2019-03-09T01:56:23.092Z,2.89
2019-03-09T01:57:22.851Z,2.89
2019-03-09T01:58:22.888Z,2.9
2019-03-09T01:59:22.946Z,2.94
2019-03-09T02:00:22.885Z,2.96
2019-03-09T02:01:22.877Z,2.98
2019-03-09T02:02:22.926Z,3.03
2019-03-09T02:03:22.923Z,3.07
2019-03-09T02:04:22.871Z,3.08
2019-03-09T02:05:22.911Z,3.02
2019-03-09T02:06:22.938Z,3
2019-03-09T02:07:22.872Z,3.06
2019-03-09T02:08:22.836Z,3.04
2019-03-09T02:09:22.870Z,3.08
2019-03-09T02:10:22.869Z,3.09
2019-03-09T02:11:22.850Z,3.13
2019-03-09T02:12:22.893Z,3.1
2019-03-09T02:13:22.884Z,3.13
2019-03-09T02:14:22.889Z,3.09
2019-03-09T02:15:22.837Z,3.13
2019-03-09T02:16:22.830Z,3.14
2019-03-09T02:17:22.861Z,3.13
2019-03-09T02:18:22.831Z,3.15
2019-03-09T02:19:22.847Z,3.16
2019-03-09T02:20:22.848Z,3.18
2019-03-09T02:21:22.837Z,3.2
2019-03-09T02:22:22.839Z,3.21
2019-03-09T02:23:22.885Z,3.23
2019-03-09T02:24:22.844Z,3.26
2019-03-09T02:25:22.843Z,3.23
2019-03-09T02:26:22.866Z,3.2
2019-03-09T02:27:22.863Z,3.23
2019-03-09T02:28:22.849Z,3.25
2019-03-09T02:29:22.850Z,3.25
2019-03-09T02:30:22.858Z,3.28
2019-03-09T02:31:22.817Z,3.27
2019-03-09T02:32:22.856Z,3.29
2019-03-09T02:33:22.862Z,3.29
2019-03-09T02:34:22.913Z,3.3
2019-03-09T02:35:22.849Z,3.3
2019-03-09T02:36:22.909Z,3.33
2019-03-09T02:37:22.844Z,3.36
2019-03-09T02:38:23.212Z,3.37
2019-03-09T02:39:22.929Z,3.36
2019-03-09T02:40:23.599Z,3.43
2019-03-09T02:41:22.852Z,3.42
2019-03-09T02:42:22.816Z,3.44
2019-03-09T02:43:22.792Z,3.47
2019-03-09T02:44:22.824Z,3.47
2019-03-09T02:45:22.890Z,3.46
2019-03-09T02:46:22.838Z,3.51
2019-03-09T02:47:22.899Z,3.54
2019-03-09T02:48:22.851Z,3.52
2019-03-09T02:49:22.882Z,3.51
2019-03-09T02:50:22.833Z,3.54
2019-03-09T02:51:22.827Z,3.56
2019-03-09T02:52:22.819Z,3.58
2019-03-09T02:53:22.811Z,3.55
2019-03-09T02:54:22.832Z,3.55
2019-03-09T02:55:22.835Z,3.54
2019-03-09T02:56:22.823Z,3.55
2019-03-09T02:57:22.837Z,3.6
2019-03-09T02:58:22.813Z,3.57
2019-03-09T02:59:22.817Z,3.63
2019-03-09T03:00:22.966Z,3.65
2019-03-09T03:01:23.080Z,3.63
2019-03-09T03:02:22.869Z,3.7
2019-03-09T03:03:22.832Z,3.74
2019-03-09T03:04:22.799Z,3.71
2019-03-09T03:05:22.850Z,3.76
2019-03-09T03:06:22.783Z,3.8
2019-03-09T03:07:22.809Z,3.81
2019-03-09T03:08:22.770Z,3.82
2019-03-09T03:09:22.788Z,3.83
2019-03-09T03:10:22.811Z,3.82
2019-03-09T03:11:22.816Z,3.82
2019-03-09T03:12:22.804Z,3.85
2019-03-09T03:13:22.750Z,3.91
2019-03-09T03:14:22.830Z,3.92
2019-03-09T03:15:22.777Z,3.87
2019-03-09T03:16:22.783Z,3.9
2019-03-09T03:17:22.782Z,3.89
2019-03-09T03:18:22.815Z,3.89
2019-03-09T03:19:22.780Z,3.86
2019-03-09T03:20:22.766Z,3.92
2019-03-09T03:21:22.860Z,3.91
2019-03-09T03:22:22.769Z,3.93
2019-03-09T03:23:22.753Z,3.89
2019-03-09T03:24:22.771Z,3.96
2019-03-09T03:25:22.776Z,3.91
2019-03-09T03:26:22.774Z,3.97
2019-03-09T03:27:22.767Z,3.97
2019-03-09T03:28:22.771Z,3.95
2019-03-09T03:29:22.753Z,3.98
2019-03-09T03:30:22.885Z,4
2019-03-09T03:31:22.772Z,4.02
2019-03-09T03:32:22.819Z,4.03
2019-03-09T03:33:23.057Z,4.04
2019-03-09T03:34:22.879Z,4.03
2019-03-09T03:35:22.768Z,4.05
2019-03-09T03:36:22.744Z,4.06
2019-03-09T03:37:22.766Z,4.06
2019-03-09T03:38:22.739Z,4.02
2019-03-09T03:39:22.753Z,4.08
2019-03-09T03:40:22.794Z,4.04
2019-03-09T03:41:22.753Z,4.08
2019-03-09T03:42:22.742Z,4.05
2019-03-09T03:43:22.779Z,3.96
2019-03-09T03:44:22.821Z,4
2019-03-09T03:45:22.711Z,4.09
2019-03-09T03:46:22.739Z,4.1
2019-03-09T03:47:22.718Z,4.08
2019-03-09T03:48:22.746Z,4.07
2019-03-09T03:49:22.741Z,4.16
2019-03-09T03:50:22.748Z,4.2
2019-03-09T03:51:22.765Z,4.15
2019-03-09T03:52:22.794Z,4.18
2019-03-09T03:53:22.762Z,4.22
2019-03-09T03:54:22.811Z,4.26
2019-03-09T03:55:22.768Z,4.25
2019-03-09T03:56:22.723Z,4.19
2019-03-09T03:57:22.700Z,4.19
2019-03-09T03:58:22.731Z,4.19
2019-03-09T03:59:22.693Z,4.22
2019-03-09T04:00:22.992Z,4.22
2019-03-09T04:01:22.691Z,4.19
2019-03-09T04:02:22.698Z,4.28
2019-03-09T04:03:22.708Z,4.26
2019-03-09T04:04:22.700Z,4.33
2019-03-09T04:05:22.743Z,4.34
2019-03-09T04:06:22.720Z,4.38
2019-03-09T04:07:22.689Z,4.4
2019-03-09T04:08:22.702Z,4.4
2019-03-09T04:09:22.716Z,4.54
2019-03-09T04:10:22.717Z,4.57
2019-03-09T04:11:22.690Z,4.47
2019-03-09T04:12:22.767Z,4.51
2019-03-09T04:13:22.690Z,4.52
2019-03-09T04:14:22.697Z,4.56
2019-03-09T04:15:22.699Z,4.6
2019-03-09T04:16:22.724Z,4.54
2019-03-09T04:17:22.690Z,4.58
2019-03-09T04:18:22.716Z,4.52
2019-03-09T04:19:22.658Z,4.61
2019-03-09T04:20:22.670Z,4.53
2019-03-09T04:21:22.705Z,4.49
2019-03-09T04:22:22.714Z,4.51
2019-03-09T04:23:24.098Z,4.51
2019-03-09T04:24:22.657Z,4.55
2019-03-09T04:25:22.663Z,4.53
2019-03-09T04:26:22.665Z,4.43
2019-03-09T04:27:22.710Z,4.49
2019-03-09T04:28:22.656Z,4.45
2019-03-09T04:29:22.659Z,4.47
2019-03-09T04:30:22.702Z,4.46
2019-03-09T04:31:22.650Z,4.42
2019-03-09T04:32:22.658Z,4.52
2019-03-09T04:33:22.641Z,4.49
2019-03-09T04:34:22.653Z,4.53
2019-03-09T04:35:22.667Z,4.61
2019-03-09T04:36:22.669Z,4.57
2019-03-09T04:37:22.645Z,4.57
2019-03-09T04:38:22.644Z,4.59
2019-03-09T04:39:22.643Z,4.67
2019-03-09T04:40:22.759Z,4.74
2019-03-09T04:41:23.053Z,4.79
2019-03-09T04:42:22.657Z,4.87
2019-03-09T04:43:22.633Z,4.91
2019-03-09T04:44:22.617Z,4.87
2019-03-09T04:45:22.607Z,4.96
2019-03-09T04:46:22.616Z,4.97
2019-03-09T04:47:22.645Z,4.93
2019-03-09T04:48:22.667Z,4.98
2019-03-09T04:49:22.600Z,4.96
2019-03-09T04:50:22.630Z,5
2019-03-09T04:51:22.630Z,5.06
2019-03-09T04:52:22.620Z,5.13
2019-03-09T04:53:22.639Z,5.03
2019-03-09T04:54:22.686Z,5
2019-03-09T04:55:22.647Z,4.99
2019-03-09T04:56:22.612Z,5.08
2019-03-09T04:57:22.642Z,5.13
2019-03-09T04:58:22.624Z,5.09
2019-03-09T04:59:22.601Z,5.07
2019-03-09T05:00:22.615Z,5.14
2019-03-09T05:01:22.628Z,5.11
2019-03-09T05:02:22.662Z,5.1
2019-03-09T05:03:22.739Z,5.2
2019-03-09T05:04:22.600Z,5.19
2019-03-09T05:05:22.608Z,5.17
2019-03-09T05:06:22.601Z,5.17
2019-03-09T05:07:22.601Z,5.1
2019-03-09T05:08:22.630Z,5.13
2019-03-09T05:09:22.596Z,5.11
2019-03-09T05:10:22.632Z,5.09
2019-03-09T05:11:22.616Z,5.17
2019-03-09T05:12:22.659Z,5.2
2019-03-09T05:13:22.609Z,5.24
2019-03-09T05:14:22.568Z,5.24
2019-03-09T05:15:22.596Z,5.22
2019-03-09T05:16:22.611Z,5.23
2019-03-09T05:17:22.592Z,5.28
2019-03-09T05:18:22.587Z,5.33
2019-03-09T05:19:22.610Z,5.24
2019-03-09T05:20:22.602Z,5.29
2019-03-09T05:21:22.634Z,5.29
2019-03-09T05:22:22.585Z,5.3
2019-03-09T05:23:22.576Z,5.34
2019-03-09T05:24:22.873Z,5.32
2019-03-09T05:25:22.578Z,5.31
2019-03-09T05:26:22.585Z,5.28
2019-03-09T05:27:22.571Z,5.31
2019-03-09T05:28:22.561Z,5.32
2019-03-09T05:29:22.550Z,5.33
2019-03-09T05:30:22.573Z,5.32
2019-03-09T05:31:22.583Z,5.26
2019-03-09T05:32:22.576Z,5.36
2019-03-09T05:33:22.594Z,5.28
2019-03-09T05:34:22.582Z,5.31
2019-03-09T05:35:22.567Z,5.32
2019-03-09T05:36:22.549Z,5.32
2019-03-09T05:37:22.544Z,5.34
2019-03-09T05:38:22.574Z,5.35
2019-03-09T05:39:22.585Z,5.37
2019-03-09T05:40:22.570Z,5.41
2019-03-09T05:41:22.543Z,5.33
2019-03-09T05:42:22.570Z,5.39
2019-03-09T05:43:22.566Z,5.35
2019-03-09T05:44:22.545Z,5.42
2019-03-09T05:45:22.559Z,5.39
2019-03-09T05:46:22.646Z,5.42
2019-03-09T05:47:22.807Z,5.38
2019-03-09T05:48:22.563Z,5.36
2019-03-09T05:49:22.572Z,5.45
2019-03-09T05:50:22.538Z,5.42
2019-03-09T05:51:22.558Z,5.43
2019-03-09T05:52:22.528Z,5.44
2019-03-09T05:53:22.517Z,5.5
2019-03-09T05:54:22.663Z,5.41
2019-03-09T05:55:22.576Z,5.43
2019-03-09T05:56:22.540Z,5.47
2019-03-09T05:57:22.548Z,5.46
2019-03-09T05:58:22.538Z,5.49
2019-03-09T05:59:22.536Z,5.43
2019-03-09T06:00:22.513Z,5.51
2019-03-09T06:01:22.513Z,5.47
2019-03-09T06:02:22.513Z,5.49
2019-03-09T06:03:22.562Z,5.44
2019-03-09T06:04:22.546Z,5.5
2019-03-09T06:05:22.531Z,5.5
2019-03-09T06:06:22.512Z,5.51
2019-03-09T06:07:22.522Z,5.48
2019-03-09T06:08:22.598Z,5.51
2019-03-09T06:09:22.534Z,5.52
2019-03-09T06:10:22.510Z,5.56
2019-03-09T06:11:22.519Z,5.56
2019-03-09T06:12:22.506Z,5.54
2019-03-09T06:13:22.483Z,5.51
2019-03-09T06:14:22.510Z,5.61
2019-03-09T06:15:22.494Z,5.55
2019-03-09T06:16:22.511Z,5.58
2019-03-09T06:17:22.535Z,5.61
2019-03-09T06:18:22.493Z,5.63
2019-03-09T06:19:22.481Z,5.55
2019-03-09T06:20:22.478Z,5.56
2019-03-09T06:21:22.534Z,5.69
2019-03-09T06:22:22.488Z,5.64
2019-03-09T06:23:22.489Z,5.7
2019-03-09T06:24:22.481Z,5.62
2019-03-09T06:25:22.507Z,5.71
2019-03-09T06:26:22.472Z,5.74
2019-03-09T06:27:22.489Z,5.75
2019-03-09T06:28:22.494Z,5.7
2019-03-09T06:29:22.477Z,5.64
2019-03-09T06:30:22.601Z,5.76
2019-03-09T06:31:22.485Z,5.75
2019-03-09T06:32:22.473Z,5.8
2019-03-09T06:33:22.474Z,5.83
2019-03-09T06:34:22.504Z,5.79
2019-03-09T06:35:22.478Z,5.83
2019-03-09T06:36:22.646Z,5.8
2019-03-09T06:37:22.500Z,5.76
2019-03-09T06:38:22.449Z,5.84
2019-03-09T06:39:22.461Z,5.88
2019-03-09T06:40:22.458Z,5.91
2019-03-09T06:41:22.454Z,5.91
2019-03-09T06:42:22.462Z,5.93
2019-03-09T06:43:22.468Z,5.95
2019-03-09T06:44:22.496Z,5.89
2019-03-09T06:45:22.465Z,5.86
2019-03-09T06:46:22.464Z,5.94
2019-03-09T06:47:22.551Z,5.99
2019-03-09T06:48:22.460Z,5.97
2019-03-09T06:49:22.445Z,5.94
2019-03-09T06:50:22.437Z,5.97
2019-03-09T06:51:22.495Z,5.97
2019-03-09T06:52:23.385Z,5.95
2019-03-09T06:53:22.466Z,5.99
2019-03-09T06:54:22.482Z,5.98
2019-03-09T06:55:22.472Z,5.94
2019-03-09T06:56:22.436Z,6.02
2019-03-09T06:57:22.489Z,6.05
2019-03-09T06:58:22.437Z,6.06
2019-03-09T06:59:22.452Z,6.05
2019-03-09T07:00:22.451Z,6.03
2019-03-09T07:01:22.475Z,6.01
2019-03-09T07:02:22.430Z,6.04
2019-03-09T07:03:22.466Z,6.06
2019-03-09T07:04:22.429Z,6.08
2019-03-09T07:05:22.461Z,6.05
2019-03-09T07:06:22.424Z,6.07
2019-03-09T07:07:22.427Z,6.1
2019-03-09T07:08:22.440Z,6.03
2019-03-09T07:09:22.449Z,5.95
2019-03-09T07:10:22.431Z,6.06
2019-03-09T07:11:22.434Z,6.1
2019-03-09T07:12:22.455Z,6.1
2019-03-09T07:13:22.425Z,6.09
2019-03-09T07:14:22.856Z,6.12
2019-03-09T07:15:22.441Z,6.09
2019-03-09T07:16:22.403Z,6.13
2019-03-09T07:17:22.416Z,6.09
2019-03-09T07:18:22.446Z,6.05
2019-03-09T07:19:22.462Z,6.08
2019-03-09T07:20:22.649Z,6.07
2019-03-09T07:21:22.408Z,6.11
2019-03-09T07:22:22.413Z,6.09
2019-03-09T07:23:22.401Z,6.09
2019-03-09T07:24:22.465Z,6.03
2019-03-09T07:25:22.429Z,6.07
2019-03-09T07:26:22.420Z,6.11
2019-03-09T07:27:22.379Z,6.06
2019-03-09T07:28:22.418Z,6.05
2019-03-09T07:29:22.394Z,6.05
2019-03-09T07:30:22.468Z,6.08
2019-03-09T07:31:22.430Z,6.08
2019-03-09T07:32:22.425Z,6.16
2019-03-09T07:33:22.399Z,6.17
2019-03-09T07:34:22.449Z,6.07
2019-03-09T07:35:22.405Z,6.16
2019-03-09T07:36:22.367Z,6.13
2019-03-09T07:37:22.372Z,6.04
2019-03-09T07:38:22.388Z,6.08
2019-03-09T07:39:22.410Z,6.09
2019-03-09T07:40:22.437Z,6.16
2019-03-09T07:41:22.390Z,6.16
2019-03-09T07:42:22.384Z,6.21
2019-03-09T07:43:22.398Z,6.2
2019-03-09T07:44:22.378Z,6.2
2019-03-09T07:45:22.391Z,6.16
2019-03-09T07:46:22.368Z,6.14
2019-03-09T07:47:22.382Z,6.15
2019-03-09T07:48:22.370Z,6.15
2019-03-09T07:49:22.399Z,6.17
2019-03-09T07:50:22.373Z,6.1
2019-03-09T07:51:22.373Z,6.21
2019-03-09T07:52:22.370Z,6.17
2019-03-09T07:53:22.399Z,6.18
2019-03-09T07:54:22.371Z,6.16
2019-03-09T07:55:22.370Z,6.19
2019-03-09T07:56:22.364Z,6.24
2019-03-09T07:57:22.363Z,6.23
2019-03-09T07:58:22.381Z,6.21
2019-03-09T07:59:22.362Z,6.18
2019-03-09T08:00:22.436Z,6.19
2019-03-09T08:01:24.242Z,6.22
2019-03-09T08:02:22.351Z,6.21
2019-03-09T08:03:22.363Z,6.2
2019-03-09T08:04:22.361Z,6.23
2019-03-09T08:05:22.361Z,6.18
2019-03-09T08:06:22.361Z,6.2
2019-03-09T08:07:22.342Z,6.24
2019-03-09T08:08:22.374Z,6.24
2019-03-09T08:09:22.343Z,6.26
2019-03-09T08:10:22.386Z,6.25
2019-03-09T08:11:22.367Z,6.24
2019-03-09T08:12:24.451Z,6.28
2019-03-09T08:13:22.362Z,6.24
2019-03-09T08:14:22.374Z,6.3
2019-03-09T08:15:22.386Z,6.23
2019-03-09T08:16:22.327Z,6.28
2019-03-09T08:17:22.347Z,6.24
2019-03-09T08:18:22.466Z,6.3
2019-03-09T08:19:22.585Z,6.24
2019-03-09T08:20:22.396Z,6.18
2019-03-09T08:21:22.377Z,6.16
2019-03-09T08:22:22.328Z,6.25
2019-03-09T08:23:22.362Z,6.27
2019-03-09T08:24:22.352Z,6.31
2019-03-09T08:25:22.361Z,6.28
2019-03-09T08:26:22.314Z,6.25
2019-03-09T08:27:22.389Z,6.29
2019-03-09T08:28:22.369Z,6.34
2019-03-09T08:29:22.325Z,6.36
2019-03-09T08:30:22.413Z,6.32
2019-03-09T08:31:22.380Z,6.27
2019-03-09T08:32:22.414Z,6.39
2019-03-09T08:33:22.412Z,6.39
2019-03-09T08:34:22.348Z,6.4
2019-03-09T08:35:22.333Z,6.39
2019-03-09T08:36:22.307Z,6.36
2019-03-09T08:37:22.385Z,6.37
2019-03-09T08:38:22.381Z,6.44
2019-03-09T08:39:22.312Z,6.46
2019-03-09T08:40:22.421Z,6.45
2019-03-09T08:41:22.468Z,6.45
2019-03-09T08:42:22.321Z,6.41
2019-03-09T08:43:22.353Z,6.36
2019-03-09T08:44:22.362Z,6.33
2019-03-09T08:45:22.321Z,6.31
2019-03-09T08:46:22.419Z,6.41
2019-03-09T08:47:22.344Z,6.45
2019-03-09T08:48:22.383Z,6.44
2019-03-09T08:49:22.362Z,6.37
2019-03-09T08:50:22.645Z,6.33
2019-03-09T08:51:22.356Z,6.35
2019-03-09T08:52:22.323Z,6.3
2019-03-09T08:53:22.352Z,6.33
2019-03-09T08:54:22.361Z,6.38
2019-03-09T08:55:22.423Z,6.4
2019-03-09T08:56:22.352Z,6.37
2019-03-09T08:57:22.356Z,6.41
2019-03-09T08:58:22.342Z,6.4
2019-03-09T08:59:22.387Z,6.42
2019-03-09T09:00:22.385Z,6.41
2019-03-09T09:01:22.309Z,6.41
2019-03-09T09:02:22.867Z,6.32
2019-03-09T09:03:22.279Z,6.29
2019-03-09T09:04:22.265Z,6.38
2019-03-09T09:05:22.276Z,6.38
2019-03-09T09:06:22.262Z,6.41
2019-03-09T09:07:22.279Z,6.4
2019-03-09T09:08:22.291Z,6.3
2019-03-09T09:09:22.302Z,6.31
2019-03-09T09:10:22.313Z,6.36
2019-03-09T09:11:22.290Z,6.38
2019-03-09T09:12:22.251Z,6.37
2019-03-09T09:13:22.264Z,6.45
2019-03-09T09:14:22.259Z,6.34
2019-03-09T09:15:22.248Z,6.41
2019-03-09T09:16:22.261Z,6.39
2019-03-09T09:17:22.271Z,6.42
2019-03-09T09:18:22.245Z,6.41
2019-03-09T09:19:22.235Z,6.41
2019-03-09T09:20:22.241Z,6.43
2019-03-09T09:21:22.236Z,6.37
2019-03-09T09:22:22.260Z,6.39
2019-03-09T09:23:22.820Z,6.39
2019-03-09T09:24:22.245Z,6.35
2019-03-09T09:25:22.294Z,6.38
2019-03-09T09:26:22.250Z,6.37
2019-03-09T09:27:22.207Z,6.36
2019-03-09T09:28:22.237Z,6.36
2019-03-09T09:29:22.266Z,6.34
2019-03-09T09:30:22.252Z,6.37
2019-03-09T09:31:22.257Z,6.41
2019-03-09T09:32:22.259Z,6.37
2019-03-09T09:33:22.256Z,6.38
2019-03-09T09:34:22.277Z,6.4
2019-03-09T09:35:22.222Z,6.42
2019-03-09T09:36:22.245Z,6.41
2019-03-09T09:37:22.253Z,6.43
2019-03-09T09:38:22.285Z,6.41
2019-03-09T09:39:22.226Z,6.4
2019-03-09T09:40:22.270Z,6.44
2019-03-09T09:41:22.305Z,6.46
2019-03-09T09:42:22.249Z,6.49
2019-03-09T09:43:22.265Z,6.43
2019-03-09T09:44:22.223Z,6.51
2019-03-09T09:45:22.351Z,6.46
2019-03-09T09:46:22.237Z,6.44
2019-03-09T09:47:22.244Z,6.41
2019-03-09T09:48:22.199Z,6.49
2019-03-09T09:49:22.230Z,6.5
2019-03-09T09:50:22.257Z,6.49
2019-03-09T09:51:22.220Z,6.47
2019-03-09T09:52:22.209Z,6.45
2019-03-09T09:53:23.837Z,6.49
2019-03-09T09:54:22.194Z,6.5
2019-03-09T09:55:22.202Z,6.52
2019-03-09T09:56:22.202Z,6.52
2019-03-09T09:57:22.225Z,6.55
2019-03-09T09:58:22.240Z,6.51
2019-03-09T09:59:22.233Z,6.53
2019-03-09T10:00:22.312Z,6.51
2019-03-09T10:01:22.238Z,6.53
2019-03-09T10:02:22.194Z,6.49
2019-03-09T10:03:22.231Z,6.54
2019-03-09T10:04:22.179Z,6.49
2019-03-09T10:05:22.202Z,6.49
2019-03-09T10:06:21.961Z,6.46
2019-03-09T10:07:22.283Z,6.46
2019-03-09T10:08:22.221Z,6.46
2019-03-09T10:09:22.207Z,6.53
2019-03-09T10:10:22.211Z,6.47
2019-03-09T10:11:22.179Z,6.45
2019-03-09T10:12:22.160Z,6.5
2019-03-09T10:13:22.165Z,6.49
2019-03-09T10:14:22.162Z,6.45
2019-03-09T10:15:22.160Z,6.51
2019-03-09T10:16:22.214Z,6.59
2019-03-09T10:17:22.184Z,6.57
2019-03-09T10:18:22.155Z,6.56
2019-03-09T10:19:22.200Z,6.51
2019-03-09T10:20:22.164Z,6.52
2019-03-09T10:21:22.151Z,6.53
2019-03-09T10:22:22.158Z,6.59
2019-03-09T10:23:22.175Z,6.57
2019-03-09T10:24:22.150Z,6.58
2019-03-09T10:25:22.185Z,6.55
2019-03-09T10:26:26.930Z,6.52
2019-03-09T10:27:22.147Z,6.53
2019-03-09T10:28:22.166Z,6.53
2019-03-09T10:29:22.363Z,6.57
2019-03-09T10:30:22.163Z,6.56
2019-03-09T10:31:22.120Z,6.57
2019-03-09T10:32:22.151Z,6.53
2019-03-09T10:33:24.502Z,6.55
2019-03-09T10:34:22.186Z,6.62
2019-03-09T10:35:22.178Z,6.62
2019-03-09T10:36:22.212Z,6.63
2019-03-09T10:37:22.158Z,6.58
2019-03-09T10:38:22.150Z,6.57
2019-03-09T10:39:22.152Z,6.57
2019-03-09T10:40:22.158Z,6.53
2019-03-09T10:41:22.142Z,6.56
2019-03-09T10:42:22.141Z,6.61
2019-03-09T10:43:22.129Z,6.68
2019-03-09T10:44:22.131Z,6.68
2019-03-09T10:45:22.187Z,6.71
2019-03-09T10:46:22.134Z,6.64
2019-03-09T10:47:22.153Z,6.68
2019-03-09T10:48:22.123Z,6.65
2019-03-09T10:49:22.137Z,6.64
2019-03-09T10:50:22.216Z,6.67
2019-03-09T10:51:22.250Z,6.66
2019-03-09T10:52:22.116Z,6.7
2019-03-09T10:53:22.184Z,6.77
2019-03-09T10:54:22.128Z,6.9
2019-03-09T10:55:22.131Z,6.83
2019-03-09T10:56:22.115Z,6.72
2019-03-09T10:57:22.113Z,6.77
2019-03-09T10:58:22.130Z,6.77
2019-03-09T10:59:22.108Z,6.79
2019-03-09T11:00:22.105Z,6.83
2019-03-09T11:01:22.120Z,6.9
2019-03-09T11:02:22.099Z,6.95
2019-03-09T11:03:22.137Z,7.09
2019-03-09T11:04:28.163Z,7.09
2019-03-09T11:05:22.089Z,7.05
2019-03-09T11:06:22.098Z,7.1
2019-03-09T11:07:22.091Z,7.04
2019-03-09T11:08:22.113Z,7.05
2019-03-09T11:09:22.147Z,7.02
2019-03-09T11:10:22.151Z,7.03
2019-03-09T11:11:22.114Z,7.02
2019-03-09T11:12:22.140Z,7.06
2019-03-09T11:13:22.100Z,7.11
2019-03-09T11:14:22.124Z,7.09
2019-03-09T11:15:22.090Z,7.18
2019-03-09T11:16:22.153Z,7.21
2019-03-09T11:17:22.087Z,7.19
2019-03-09T11:18:22.080Z,7.18
2019-03-09T11:19:22.100Z,7.18
2019-03-09T11:20:22.096Z,7.26
2019-03-09T11:21:22.085Z,7.27
2019-03-09T11:22:22.087Z,7.31
2019-03-09T11:23:22.084Z,7.29
2019-03-09T11:24:22.074Z,7.33
2019-03-09T11:25:22.101Z,7.35
2019-03-09T11:26:22.087Z,7.36
2019-03-09T11:27:22.234Z,7.31
2019-03-09T11:28:22.075Z,7.36
2019-03-09T11:29:22.079Z,7.38
2019-03-09T11:30:22.095Z,7.4
2019-03-09T11:31:22.074Z,7.46
2019-03-09T11:32:22.071Z,7.37
2019-03-09T11:33:22.099Z,7.38
2019-03-09T11:34:22.549Z,7.32
2019-03-09T11:35:22.116Z,7.3
2019-03-09T11:36:22.138Z,7.31
2019-03-09T11:37:22.096Z,7.26
2019-03-09T11:38:22.085Z,7.29
2019-03-09T11:39:22.116Z,7.32
2019-03-09T11:40:22.067Z,7.34
2019-03-09T11:41:22.075Z,7.32
2019-03-09T11:42:22.063Z,7.37
2019-03-09T11:43:22.176Z,7.35
2019-03-09T11:44:22.042Z,7.35
2019-03-09T11:45:22.058Z,7.38
2019-03-09T11:46:22.063Z,7.38
2019-03-09T11:47:22.061Z,7.33
2019-03-09T11:48:22.063Z,7.37
2019-03-09T11:49:22.078Z,7.28
2019-03-09T11:50:22.132Z,7.38
2019-03-09T11:51:22.061Z,7.31
2019-03-09T11:52:22.051Z,7.33
2019-03-09T11:53:22.018Z,7.35
2019-03-09T11:54:22.784Z,7.28
2019-03-09T11:55:22.046Z,7.25
2019-03-09T11:56:22.024Z,7.21
2019-03-09T11:57:22.035Z,7.27
2019-03-09T11:58:22.037Z,7.25
2019-03-09T11:59:22.120Z,7.27
2019-03-09T12:00:22.036Z,7.22
2019-03-09T12:01:22.042Z,7.25
2019-03-09T12:02:22.016Z,7.25
2019-03-09T12:03:22.015Z,7.31
2019-03-09T12:04:22.035Z,7.32
2019-03-09T12:05:22.028Z,7.21
2019-03-09T12:06:22.029Z,7.19
2019-03-09T12:07:22.033Z,7.23
2019-03-09T12:08:22.011Z,7.25
2019-03-09T12:09:22.015Z,7.21
2019-03-09T12:10:22.155Z,7.17
2019-03-09T12:11:22.173Z,7.14
2019-03-09T12:12:22.031Z,7.06
2019-03-09T12:13:22.024Z,7.08
2019-03-09T12:14:22.103Z,7.07
2019-03-09T12:15:22.015Z,7.07
2019-03-09T12:16:22.044Z,7.12
2019-03-09T12:17:22.018Z,7.07
2019-03-09T12:18:21.993Z,7.1
2019-03-09T12:19:22.000Z,7.07
2019-03-09T12:20:22.019Z,7.06
2019-03-09T12:21:22.022Z,7.1
2019-03-09T12:22:22.020Z,7.1
2019-03-09T12:23:22.108Z,7.11
2019-03-09T12:24:23.041Z,7.09
2019-03-09T12:25:22.068Z,7.12
2019-03-09T12:26:22.033Z,7.08
2019-03-09T12:27:22.994Z,7.13
2019-03-09T12:28:22.023Z,7.17
2019-03-09T12:29:21.984Z,7.12
2019-03-09T12:30:22.038Z,7.12
2019-03-09T12:31:22.001Z,7.14
2019-03-09T12:32:21.985Z,7.11
2019-03-09T12:33:21.996Z,7.12
2019-03-09T12:34:21.990Z,7.13
2019-03-09T12:35:22.003Z,7.11
2019-03-09T12:36:22.003Z,7.12
2019-03-09T12:37:21.965Z,7.16
2019-03-09T12:38:22.004Z,7.12
2019-03-09T12:39:22.851Z,7.1
2019-03-09T12:40:22.158Z,7.11
2019-03-09T12:41:22.005Z,7.07
2019-03-09T12:42:22.103Z,7.02
2019-03-09T12:43:22.006Z,7.08
2019-03-09T12:44:21.991Z,7.05
2019-03-09T12:45:21.989Z,7.11
2019-03-09T12:46:21.985Z,7.11
2019-03-09T12:47:22.004Z,7.06
2019-03-09T12:48:22.082Z,7.11
2019-03-09T12:49:21.974Z,7.13
2019-03-09T12:50:22.098Z,7.13
2019-03-09T12:51:21.966Z,7.12
2019-03-09T12:52:21.979Z,7.18
2019-03-09T12:53:22.015Z,7.19
2019-03-09T12:54:21.959Z,7.24
2019-03-09T12:55:21.943Z,7.24
2019-03-09T12:56:21.961Z,7.3
2019-03-09T12:57:21.961Z,7.27
2019-03-09T12:58:21.988Z,7.25
2019-03-09T12:59:21.972Z,7.27
2019-03-09T13:00:22.039Z,7.28
2019-03-09T13:01:22.362Z,7.29
2019-03-09T13:02:21.940Z,7.28
2019-03-09T13:03:21.945Z,7.3
2019-03-09T13:04:21.949Z,7.27
2019-03-09T13:05:21.963Z,7.26
2019-03-09T13:06:21.976Z,7.25
2019-03-09T13:07:21.963Z,7.2
2019-03-09T13:08:23.826Z,7.25
2019-03-09T13:09:21.954Z,7.25
2019-03-09T13:10:21.932Z,7.33
2019-03-09T13:11:21.963Z,7.27
2019-03-09T13:12:21.979Z,7.29
2019-03-09T13:13:21.926Z,7.26
2019-03-09T13:14:21.922Z,7.26
2019-03-09T13:15:21.957Z,7.28
2019-03-09T13:16:21.951Z,7.33
2019-03-09T13:17:21.927Z,7.27
2019-03-09T13:18:21.941Z,7.3
2019-03-09T13:19:21.942Z,7.29
2019-03-09T13:20:21.920Z,7.22
2019-03-09T13:21:22.016Z,7.17